PWSweather.com
Personal Weather Stations
Station Observations
SHAHALMS1
Eftra, Falkenberg, HA

EftraFalkenberg, HA

Lat: 56.85, Lon: 12.65

Elevation: 140

Station Type:

http://hem.passagen.se/risarp101

High Low Average
Temperature 72.5°F22.5°C 57.2°F14.0°C 64.0°F17.8°C
Dew Point 64.3°F17.9°C 49.4°F9.7°C 56.7°F13.7°C
Winds 14.8 mph 23.8 kmh 0.2 mph 0.3 kmh 7.0 mph E11.3 kmh E
Wind Gusts 28.3 mph45.5 kmh 1.4 mph2.3 kmh 13.0 mph20.9 kmh
Humidity 97% 67% 78%
Pressure 29.77 in1008.1 mb 29.65 in1004.1 mb -
Precipitation 0.56 in14.2 mm - -
Hour Temp Dew Point Humidity Winds Wind Gusts Pressure Precip Precip Rate Daily Precip Total
01:50 AM 60.4°F15.8°C 49.8°F9.9°C 68% 3.2 mph E5.1 kmh E 3.9 mph6.3 kmh 29.77 in1008.1 mb 0.00 in0.0 mm 0.00 in0.0 mm 0.00 in0.0 mm
02:00 AM 60.6°F15.9°C 49.6°F9.8°C 67% 3.2 mph E5.1 kmh E 3.9 mph6.3 kmh 29.77 in1008.1 mb 0.00 in0.0 mm 0.00 in0.0 mm 0.00 in0.0 mm
02:10 AM 60.4°F15.8°C 49.8°F9.9°C 68% 3.2 mph E5.1 kmh E 3.9 mph6.3 kmh 29.77 in1008.1 mb 0.00 in0.0 mm 0.00 in0.0 mm 0.00 in0.0 mm
02:20 AM 60.4°F15.8°C 49.8°F9.9°C 68% 3.2 mph E5.1 kmh E 3.9 mph6.3 kmh 29.77 in1008.1 mb 0.00 in0.0 mm 0.00 in0.0 mm 0.00 in0.0 mm
02:30 AM 60.3°F15.7°C 49.7°F9.8°C 68% 3.2 mph E5.1 kmh E 3.9 mph6.3 kmh 29.74 in1007.1 mb 0.00 in0.0 mm 0.00 in0.0 mm 0.00 in0.0 mm
02:40 AM 60.3°F15.7°C 49.7°F9.8°C 68% 3.2 mph E5.1 kmh E 3.9 mph6.3 kmh 29.74 in1007.1 mb 0.00 in0.0 mm 0.00 in0.0 mm 0.00 in0.0 mm
02:50 AM 60.1°F15.6°C 49.5°F9.7°C 68% 3.2 mph E5.1 kmh E 3.9 mph6.3 kmh 29.71 in1006.1 mb 0.00 in0.0 mm 0.00 in0.0 mm 0.00 in0.0 mm
03:00 AM 60.1°F15.6°C 49.9°F9.9°C 69% 3.2 mph E5.1 kmh E 3.9 mph6.3 kmh 29.74 in1007.1 mb 0.00 in0.0 mm 0.00 in0.0 mm 0.00 in0.0 mm
03:10 AM 60.1°F15.6°C 49.9°F9.9°C 69% 3.2 mph E5.1 kmh E 3.9 mph6.3 kmh 29.74 in1007.1 mb 0.00 in0.0 mm 0.00 in0.0 mm 0.00 in0.0 mm
03:20 AM 59.9°F15.5°C 49.7°F9.8°C 69% 3.8 mph NE6.1 kmh NE 4.7 mph7.6 kmh 29.74 in1007.1 mb 0.00 in0.0 mm 0.00 in0.0 mm 0.00 in0.0 mm
03:30 AM 59.7°F15.4°C 49.9°F9.9°C 70% 3.8 mph NE6.1 kmh NE 4.7 mph7.6 kmh 29.74 in1007.1 mb 0.00 in0.0 mm 0.00 in0.0 mm 0.00 in0.0 mm
03:40 AM 59.7°F15.4°C 49.9°F9.9°C 70% 5.2 mph NE8.4 kmh NE 6.4 mph10.3 kmh 29.74 in1007.1 mb 0.00 in0.0 mm 0.00 in0.0 mm 0.00 in0.0 mm
03:50 AM 59.5°F15.3°C 49.4°F9.7°C 69% 5.2 mph NE8.4 kmh NE 6.4 mph10.3 kmh 29.74 in1007.1 mb 0.00 in0.0 mm 0.00 in0.0 mm 0.00 in0.0 mm
04:00 AM 59.5°F15.3°C 49.4°F9.7°C 69% 5.5 mph ENE8.9 kmh ENE 6.8 mph10.9 kmh 29.74 in1007.1 mb 0.00 in0.0 mm 0.00 in0.0 mm 0.00 in0.0 mm
04:10 AM 59.5°F15.3°C 49.7°F9.8°C 70% 5.5 mph ENE8.9 kmh ENE 6.8 mph10.9 kmh 29.74 in1007.1 mb 0.00 in0.0 mm 0.00 in0.0 mm 0.00 in0.0 mm
04:20 AM 59.7°F15.4°C 49.5°F9.7°C 69% 5.5 mph ENE8.9 kmh ENE 6.8 mph10.9 kmh 29.71 in1006.1 mb 0.00 in0.0 mm 0.00 in0.0 mm 0.00 in0.0 mm
04:30 AM 59.9°F15.5°C 49.7°F9.8°C 69% 5.5 mph ENE8.9 kmh ENE 6.8 mph10.9 kmh 29.71 in1006.1 mb 0.00 in0.0 mm 0.00 in0.0 mm 0.00 in0.0 mm
04:40 AM 59.9°F15.5°C 49.7°F9.8°C 69% 10.2 mph E16.4 kmh E 12.5 mph20.1 kmh 29.71 in1006.1 mb 0.00 in0.0 mm 0.00 in0.0 mm 0.00 in0.0 mm
04:50 AM 59.9°F15.5°C 49.7°F9.8°C 69% 10.2 mph E16.4 kmh E 12.5 mph20.1 kmh 29.71 in1006.1 mb 0.00 in0.0 mm 0.00 in0.0 mm 0.00 in0.0 mm
05:00 AM 60.1°F15.6°C 50.3°F10.2°C 70% 7.3 mph E11.7 kmh E 8.9 mph14.3 kmh 29.71 in1006.1 mb 0.00 in0.0 mm 0.00 in0.0 mm 0.00 in0.0 mm
05:10 AM 59.9°F15.5°C 50.1°F10.1°C 70% 11.0 mph E17.7 kmh E 17.5 mph28.2 kmh 29.71 in1006.1 mb 0.00 in0.0 mm 0.00 in0.0 mm 0.00 in0.0 mm
05:20 AM 59.9°F15.5°C 50.5°F10.3°C 71% 13.9 mph E22.4 kmh E 17.5 mph28.2 kmh 29.71 in1006.1 mb 0.00 in0.0 mm 0.00 in0.0 mm 0.00 in0.0 mm
05:30 AM 60.1°F15.6°C 51.4°F10.8°C 73% 9.9 mph E15.9 kmh E 12.2 mph19.6 kmh 29.71 in1006.1 mb 0.00 in0.0 mm 0.00 in0.0 mm 0.00 in0.0 mm
05:40 AM 60.1°F15.6°C 52.1°F11.2°C 75% 9.9 mph E15.9 kmh E 12.2 mph19.6 kmh 29.71 in1006.1 mb 0.00 in0.0 mm 0.00 in0.0 mm 0.00 in0.0 mm
05:50 AM 60.3°F15.7°C 52.7°F11.5°C 76% 9.9 mph E15.9 kmh E 12.2 mph19.6 kmh 29.71 in1006.1 mb 0.00 in0.0 mm 0.00 in0.0 mm 0.00 in0.0 mm
06:00 AM 60.3°F15.7°C 53.0°F11.7°C 77% 9.9 mph E15.9 kmh E 12.2 mph19.6 kmh 29.68 in1005.1 mb 0.00 in0.0 mm 0.00 in0.0 mm 0.00 in0.0 mm
06:10 AM 60.1°F15.6°C 53.2°F11.8°C 78% 9.9 mph E15.9 kmh E 12.2 mph19.6 kmh 29.68 in1005.1 mb 0.00 in0.0 mm 0.00 in0.0 mm 0.00 in0.0 mm
06:20 AM 59.9°F15.5°C 53.4°F11.9°C 79% 6.4 mph NE10.3 kmh NE 7.9 mph12.7 kmh 29.68 in1005.1 mb 0.00 in0.0 mm 0.00 in0.0 mm 0.00 in0.0 mm
06:30 AM 59.7°F15.4°C 53.5°F11.9°C 80% 6.4 mph NE10.3 kmh NE 7.9 mph12.7 kmh 29.68 in1005.1 mb 0.00 in0.0 mm 0.00 in0.0 mm 0.00 in0.0 mm
06:40 AM 59.4°F15.2°C 53.9°F12.2°C 82% 6.4 mph NE10.3 kmh NE 7.9 mph12.7 kmh 29.68 in1005.1 mb 0.00 in0.0 mm 0.00 in0.0 mm 0.00 in0.0 mm
06:50 AM 59.0°F15.0°C 53.8°F12.1°C 83% 6.4 mph NE10.3 kmh NE 7.9 mph12.7 kmh 29.68 in1005.1 mb 0.00 in0.0 mm 0.00 in0.0 mm 0.00 in0.0 mm
07:00 AM 58.6°F14.8°C 53.8°F12.1°C 84% 6.4 mph NE10.3 kmh NE 7.9 mph12.7 kmh 29.71 in1006.1 mb 0.00 in0.0 mm 0.00 in0.0 mm 0.00 in0.0 mm
07:10 AM 58.3°F14.6°C 54.7°F12.6°C 88% 6.4 mph NE10.3 kmh NE 7.9 mph12.7 kmh 29.71 in1006.1 mb 0.00 in0.0 mm 0.00 in0.0 mm 0.00 in0.0 mm
07:20 AM 57.9°F14.4°C 55.0°F12.8°C 90% 6.4 mph NE10.3 kmh NE 9.7 mph15.6 kmh 29.71 in1006.1 mb 0.00 in0.0 mm 0.00 in0.0 mm 0.00 in0.0 mm
07:30 AM 57.7°F14.3°C 54.8°F12.7°C 90% 6.3 mph ENE10.1 kmh ENE 12.9 mph20.8 kmh 29.71 in1006.1 mb 0.05 in1.3 mm 0.30 in7.6 mm 0.05 in1.3 mm
07:40 AM 57.4°F14.1°C 54.5°F12.5°C 90% 5.9 mph ESE9.5 kmh ESE 10.0 mph16.1 kmh 29.71 in1006.1 mb 0.19 in4.8 mm 0.84 in21.3 mm 0.18 in4.6 mm
07:50 AM 57.4°F14.1°C 55.1°F12.8°C 92% 7.0 mph E11.3 kmh E 14.0 mph22.5 kmh 29.74 in1007.1 mb 0.43 in10.9 mm 1.44 in36.6 mm 0.43 in10.9 mm
08:00 AM 57.2°F14.0°C 55.8°F13.2°C 95% 5.2 mph ENE8.4 kmh ENE 12.2 mph19.6 kmh 29.74 in1007.1 mb 0.52 in13.2 mm 0.11 in2.8 mm 0.52 in13.2 mm
08:10 AM 57.2°F14.0°C 56.4°F13.6°C 97% 3.7 mph NE6.0 kmh NE 9.3 mph15.0 kmh 29.74 in1007.1 mb 0.56 in14.2 mm 0.24 in6.1 mm 0.56 in14.2 mm
08:20 AM 57.6°F14.2°C 56.7°F13.7°C 97% 3.6 mph NE5.8 kmh NE 7.9 mph12.7 kmh 29.71 in1006.1 mb 0.56 in14.2 mm 0.00 in0.0 mm 0.56 in14.2 mm
08:30 AM 58.3°F14.6°C 57.4°F14.1°C 97% 4.1 mph NE6.6 kmh NE 9.7 mph15.6 kmh 29.71 in1006.1 mb 0.52 in13.2 mm 0.00 in0.0 mm 0.56 in14.2 mm
08:40 AM 58.6°F14.8°C 57.5°F14.2°C 96% 4.9 mph NE7.9 kmh NE 12.2 mph19.6 kmh 29.71 in1006.1 mb 0.38 in9.7 mm 0.00 in0.0 mm 0.56 in14.2 mm
08:50 AM 58.6°F14.8°C 57.2°F14.0°C 95% 4.7 mph ENE7.6 kmh ENE 11.8 mph19.0 kmh 29.71 in1006.1 mb 0.14 in3.6 mm 0.00 in0.0 mm 0.56 in14.2 mm
09:00 AM 59.0°F15.0°C 57.6°F14.2°C 95% 5.8 mph ENE9.3 kmh ENE 12.9 mph20.8 kmh 29.71 in1006.1 mb 0.05 in1.3 mm 0.00 in0.0 mm 0.56 in14.2 mm
09:10 AM 60.3°F15.7°C 58.8°F14.9°C 95% 4.4 mph ENE7.1 kmh ENE 10.4 mph16.7 kmh 29.71 in1006.1 mb 0.00 in0.0 mm 0.00 in0.0 mm 0.56 in14.2 mm
09:20 AM 61.5°F16.4°C 59.8°F15.4°C 94% 4.4 mph NE7.1 kmh NE 12.5 mph20.1 kmh 29.68 in1005.1 mb 0.00 in0.0 mm 0.00 in0.0 mm 0.56 in14.2 mm
09:30 AM 62.2°F16.8°C 59.6°F15.3°C 91% 5.3 mph NE8.5 kmh NE 9.7 mph15.6 kmh 29.68 in1005.1 mb 0.00 in0.0 mm 0.00 in0.0 mm 0.56 in14.2 mm
09:40 AM 63.9°F17.7°C 60.9°F16.1°C 90% 5.5 mph ENE8.9 kmh ENE 19.0 mph30.6 kmh 29.68 in1005.1 mb 0.00 in0.0 mm 0.00 in0.0 mm 0.56 in14.2 mm
09:50 AM 63.7°F17.6°C 59.4°F15.2°C 86% 5.2 mph ENE8.4 kmh ENE 13.6 mph21.9 kmh 29.65 in1004.1 mb 0.00 in0.0 mm 0.00 in0.0 mm 0.56 in14.2 mm
10:00 AM 63.7°F17.6°C 58.8°F14.9°C 84% 4.9 mph NE7.9 kmh NE 12.2 mph19.6 kmh 29.68 in1005.1 mb 0.00 in0.0 mm 0.00 in0.0 mm 0.56 in14.2 mm
10:10 AM 64.0°F17.8°C 59.4°F15.2°C 85% 4.9 mph NE7.9 kmh NE 10.4 mph16.7 kmh 29.68 in1005.1 mb 0.00 in0.0 mm 0.00 in0.0 mm 0.56 in14.2 mm
10:20 AM 65.3°F18.5°C 60.0°F15.6°C 83% 4.6 mph NE7.4 kmh NE 11.5 mph18.5 kmh 29.68 in1005.1 mb 0.00 in0.0 mm 0.00 in0.0 mm 0.56 in14.2 mm
10:30 AM 65.3°F18.5°C 58.3°F14.6°C 78% 6.1 mph ENE9.8 kmh ENE 12.2 mph19.6 kmh 29.68 in1005.1 mb 0.00 in0.0 mm 0.00 in0.0 mm 0.56 in14.2 mm
10:40 AM 65.8°F18.8°C 58.8°F14.9°C 78% 5.2 mph ENE8.4 kmh ENE 14.0 mph22.5 kmh 29.68 in1005.1 mb 0.00 in0.0 mm 0.00 in0.0 mm 0.56 in14.2 mm
10:50 AM 66.0°F18.9°C 59.0°F15.0°C 78% 6.4 mph E10.3 kmh E 14.0 mph22.5 kmh 29.65 in1004.1 mb 0.00 in0.0 mm 0.00 in0.0 mm 0.56 in14.2 mm
11:00 AM 65.3°F18.5°C 58.3°F14.6°C 78% 5.5 mph ENE8.9 kmh ENE 11.5 mph18.5 kmh 29.65 in1004.1 mb 0.00 in0.0 mm 0.00 in0.0 mm 0.56 in14.2 mm
11:10 AM 64.9°F18.3°C 57.9°F14.4°C 78% 5.9 mph ENE9.5 kmh ENE 15.7 mph25.3 kmh 29.65 in1004.1 mb 0.00 in0.0 mm 0.00 in0.0 mm 0.56 in14.2 mm
11:20 AM 64.9°F18.3°C 58.6°F14.8°C 80% 4.3 mph ENE6.9 kmh ENE 10.4 mph16.7 kmh 29.68 in1005.1 mb 0.00 in0.0 mm 0.00 in0.0 mm 0.56 in14.2 mm
11:30 AM 65.3°F18.5°C 59.0°F15.0°C 80% 4.8 mph ENE7.7 kmh ENE 14.3 mph23.0 kmh 29.68 in1005.1 mb 0.00 in0.0 mm 0.00 in0.0 mm 0.56 in14.2 mm
11:40 AM 66.2°F19.0°C 59.8°F15.4°C 80% 4.6 mph E7.4 kmh E 10.7 mph17.2 kmh 29.68 in1005.1 mb 0.00 in0.0 mm 0.00 in0.0 mm 0.56 in14.2 mm
11:50 AM 66.7°F19.3°C 59.3°F15.2°C 77% 6.5 mph E10.5 kmh E 12.9 mph20.8 kmh 29.65 in1004.1 mb 0.00 in0.0 mm 0.00 in0.0 mm 0.56 in14.2 mm
12:00 PM 67.5°F19.7°C 62.1°F16.7°C 83% 6.9 mph E11.1 kmh E 14.0 mph22.5 kmh 29.65 in1004.1 mb 0.00 in0.0 mm 0.00 in0.0 mm 0.56 in14.2 mm
12:10 PM 67.3°F19.6°C 59.8°F15.4°C 77% 7.1 mph ENE11.4 kmh ENE 14.0 mph22.5 kmh 29.65 in1004.1 mb 0.00 in0.0 mm 0.00 in0.0 mm 0.56 in14.2 mm
12:20 PM 66.9°F19.4°C 59.1°F15.1°C 76% 7.1 mph ENE11.4 kmh ENE 12.9 mph20.8 kmh 29.68 in1005.1 mb 0.00 in0.0 mm 0.00 in0.0 mm 0.56 in14.2 mm
12:30 PM 67.5°F19.7°C 60.0°F15.6°C 77% 5.5 mph ENE8.9 kmh ENE 12.2 mph19.6 kmh 29.68 in1005.1 mb 0.00 in0.0 mm 0.00 in0.0 mm 0.56 in14.2 mm
12:40 PM 68.7°F20.4°C 61.2°F16.2°C 77% 6.4 mph ENE10.3 kmh ENE 19.0 mph30.6 kmh 29.68 in1005.1 mb 0.00 in0.0 mm 0.00 in0.0 mm 0.56 in14.2 mm
12:50 PM 69.4°F20.8°C 61.5°F16.4°C 76% 6.0 mph E9.7 kmh E 16.1 mph25.9 kmh 29.68 in1005.1 mb 0.00 in0.0 mm 0.00 in0.0 mm 0.56 in14.2 mm
01:00 PM 69.8°F21.0°C 61.9°F16.6°C 76% 6.7 mph E10.8 kmh E 16.1 mph25.9 kmh 29.68 in1005.1 mb 0.00 in0.0 mm 0.00 in0.0 mm 0.56 in14.2 mm
01:10 PM 70.3°F21.3°C 62.4°F16.9°C 76% 5.2 mph ENE8.4 kmh ENE 12.2 mph19.6 kmh 29.68 in1005.1 mb 0.00 in0.0 mm 0.00 in0.0 mm 0.56 in14.2 mm
01:20 PM 71.4°F21.9°C 63.8°F17.7°C 77% 6.9 mph ENE11.1 kmh ENE 19.7 mph31.7 kmh 29.68 in1005.1 mb 0.00 in0.0 mm 0.00 in0.0 mm 0.56 in14.2 mm
01:30 PM 72.3°F22.4°C 64.3°F17.9°C 76% 9.4 mph E15.1 kmh E 24.7 mph39.8 kmh 29.68 in1005.1 mb 0.00 in0.0 mm 0.00 in0.0 mm 0.56 in14.2 mm
01:40 PM 72.1°F22.3°C 62.6°F17.0°C 72% 10.2 mph E16.4 kmh E 16.8 mph27.0 kmh 29.68 in1005.1 mb 0.00 in0.0 mm 0.00 in0.0 mm 0.56 in14.2 mm
01:50 PM 72.5°F22.5°C 63.4°F17.4°C 73% 10.8 mph E17.4 kmh E 22.2 mph35.7 kmh 29.68 in1005.1 mb 0.00 in0.0 mm 0.00 in0.0 mm 0.56 in14.2 mm
02:00 PM 72.1°F22.3°C 61.8°F16.6°C 70% 14.8 mph E23.8 kmh E 26.8 mph43.1 kmh 29.71 in1006.1 mb 0.00 in0.0 mm 0.00 in0.0 mm 0.56 in14.2 mm
02:10 PM 72.1°F22.3°C 62.6°F17.0°C 72% 12.3 mph E19.8 kmh E 21.5 mph34.6 kmh 29.71 in1006.1 mb 0.00 in0.0 mm 0.00 in0.0 mm 0.56 in14.2 mm
02:20 PM 71.4°F21.9°C 61.5°F16.4°C 71% 12.2 mph E19.6 kmh E 17.9 mph28.8 kmh 29.68 in1005.1 mb 0.00 in0.0 mm 0.00 in0.0 mm 0.56 in14.2 mm
02:30 PM 71.2°F21.8°C 61.7°F16.5°C 72% 11.9 mph E19.2 kmh E 19.3 mph31.1 kmh 29.65 in1004.1 mb 0.00 in0.0 mm 0.00 in0.0 mm 0.56 in14.2 mm
02:40 PM 71.2°F21.8°C 62.1°F16.7°C 73% 10.4 mph E16.7 kmh E 16.5 mph26.6 kmh 29.65 in1004.1 mb 0.00 in0.0 mm 0.00 in0.0 mm 0.56 in14.2 mm
02:50 PM 71.4°F21.9°C 62.7°F17.1°C 74% 7.9 mph E12.7 kmh E 17.5 mph28.2 kmh 29.65 in1004.1 mb 0.00 in0.0 mm 0.00 in0.0 mm 0.56 in14.2 mm
03:00 PM 71.8°F22.1°C 62.7°F17.1°C 73% 8.8 mph E14.2 kmh E 19.3 mph31.1 kmh 29.68 in1005.1 mb 0.00 in0.0 mm 0.00 in0.0 mm 0.56 in14.2 mm
03:10 PM 71.1°F21.7°C 61.6°F16.4°C 72% 7.9 mph E12.7 kmh E 16.5 mph26.6 kmh 29.68 in1005.1 mb 0.00 in0.0 mm 0.00 in0.0 mm 0.56 in14.2 mm
03:20 PM 70.9°F21.6°C 62.2°F16.8°C 74% 9.4 mph E15.1 kmh E 17.2 mph27.7 kmh 29.68 in1005.1 mb 0.00 in0.0 mm 0.00 in0.0 mm 0.56 in14.2 mm
03:30 PM 71.2°F21.8°C 62.1°F16.7°C 73% 11.0 mph E17.7 kmh E 16.5 mph26.6 kmh 29.68 in1005.1 mb 0.00 in0.0 mm 0.00 in0.0 mm 0.56 in14.2 mm
03:40 PM 71.1°F21.7°C 62.4°F16.9°C 74% 8.2 mph E13.2 kmh E 19.7 mph31.7 kmh 29.68 in1005.1 mb 0.00 in0.0 mm 0.00 in0.0 mm 0.56 in14.2 mm
03:50 PM 71.1°F21.7°C 62.0°F16.7°C 73% 11.2 mph E18.0 kmh E 28.3 mph45.5 kmh 29.68 in1005.1 mb 0.00 in0.0 mm 0.00 in0.0 mm 0.56 in14.2 mm
04:00 PM 70.7°F21.5°C 61.6°F16.4°C 73% 9.9 mph E15.9 kmh E 22.2 mph35.7 kmh 29.65 in1004.1 mb 0.00 in0.0 mm 0.00 in0.0 mm 0.56 in14.2 mm
04:10 PM 70.5°F21.4°C 61.4°F16.3°C 73% 13.4 mph E21.6 kmh E 19.7 mph31.7 kmh 29.65 in1004.1 mb 0.00 in0.0 mm 0.00 in0.0 mm 0.56 in14.2 mm
04:20 PM 70.0°F21.1°C 60.5°F15.8°C 72% 9.5 mph E15.3 kmh E 17.5 mph28.2 kmh 29.65 in1004.1 mb 0.00 in0.0 mm 0.00 in0.0 mm 0.56 in14.2 mm
04:30 PM 69.3°F20.7°C 60.2°F15.7°C 73% 11.7 mph E18.8 kmh E 20.0 mph32.2 kmh 29.68 in1005.1 mb 0.00 in0.0 mm 0.00 in0.0 mm 0.56 in14.2 mm
04:40 PM 68.9°F20.5°C 59.9°F15.5°C 73% 7.5 mph E12.1 kmh E 12.5 mph20.1 kmh 29.68 in1005.1 mb 0.00 in0.0 mm 0.00 in0.0 mm 0.56 in14.2 mm
04:50 PM 69.1°F20.6°C 60.1°F15.6°C 73% 11.4 mph E18.3 kmh E 16.8 mph27.0 kmh 29.65 in1004.1 mb 0.00 in0.0 mm 0.00 in0.0 mm 0.56 in14.2 mm
05:00 PM 68.9°F20.5°C 59.9°F15.5°C 73% 10.5 mph E16.9 kmh E 22.9 mph36.9 kmh 29.68 in1005.1 mb 0.00 in0.0 mm 0.00 in0.0 mm 0.56 in14.2 mm
05:10 PM 68.9°F20.5°C 60.3°F15.7°C 74% 6.1 mph E9.8 kmh E 10.4 mph16.7 kmh 29.68 in1005.1 mb 0.00 in0.0 mm 0.00 in0.0 mm 0.56 in14.2 mm
05:20 PM 69.1°F20.6°C 60.1°F15.6°C 73% 9.3 mph E15.0 kmh E 16.8 mph27.0 kmh 29.71 in1006.1 mb 0.00 in0.0 mm 0.00 in0.0 mm 0.56 in14.2 mm
05:30 PM 69.1°F20.6°C 60.1°F15.6°C 73% 8.3 mph ENE13.4 kmh ENE 16.8 mph27.0 kmh 29.71 in1006.1 mb 0.00 in0.0 mm 0.00 in0.0 mm 0.56 in14.2 mm
05:40 PM 68.5°F20.3°C 59.5°F15.3°C 73% 8.9 mph NE14.3 kmh NE 19.7 mph31.7 kmh 29.71 in1006.1 mb 0.00 in0.0 mm 0.00 in0.0 mm 0.56 in14.2 mm
05:50 PM 68.0°F20.0°C 59.4°F15.2°C 74% 7.4 mph E11.9 kmh E 13.6 mph21.9 kmh 29.71 in1006.1 mb 0.00 in0.0 mm 0.00 in0.0 mm 0.56 in14.2 mm
06:00 PM 67.6°F19.8°C 59.4°F15.2°C 75% 7.1 mph E11.4 kmh E 12.2 mph19.6 kmh 29.74 in1007.1 mb 0.00 in0.0 mm 0.00 in0.0 mm 0.56 in14.2 mm
06:10 PM 67.3°F19.6°C 59.1°F15.1°C 75% 7.5 mph E12.1 kmh E 13.6 mph21.9 kmh 29.74 in1007.1 mb 0.00 in0.0 mm 0.00 in0.0 mm 0.56 in14.2 mm
06:20 PM 66.9°F19.4°C 58.7°F14.8°C 75% 10.4 mph E16.7 kmh E 24.3 mph39.1 kmh 29.74 in1007.1 mb 0.00 in0.0 mm 0.00 in0.0 mm 0.56 in14.2 mm
06:30 PM 66.7°F19.3°C 58.9°F14.9°C 76% 9.7 mph E15.6 kmh E 20.4 mph32.8 kmh 29.74 in1007.1 mb 0.00 in0.0 mm 0.00 in0.0 mm 0.56 in14.2 mm
06:40 PM 66.4°F19.1°C 58.6°F14.8°C 76% 7.0 mph E11.3 kmh E 13.6 mph21.9 kmh 29.74 in1007.1 mb 0.00 in0.0 mm 0.00 in0.0 mm 0.56 in14.2 mm
06:50 PM 66.2°F19.0°C 58.8°F14.9°C 77% 5.5 mph E8.9 kmh E 11.5 mph18.5 kmh 29.74 in1007.1 mb 0.00 in0.0 mm 0.00 in0.0 mm 0.56 in14.2 mm
07:00 PM 66.0°F18.9°C 59.0°F15.0°C 78% 4.5 mph E7.2 kmh E 10.7 mph17.2 kmh 29.71 in1006.1 mb 0.00 in0.0 mm 0.00 in0.0 mm 0.56 in14.2 mm
07:10 PM 65.8°F18.8°C 58.8°F14.9°C 78% 4.9 mph E7.9 kmh E 11.5 mph18.5 kmh 29.71 in1006.1 mb 0.00 in0.0 mm 0.00 in0.0 mm 0.56 in14.2 mm
07:20 PM 65.8°F18.8°C 58.8°F14.9°C 78% 5.1 mph ENE8.2 kmh ENE 10.7 mph17.2 kmh 29.71 in1006.1 mb 0.00 in0.0 mm 0.00 in0.0 mm 0.56 in14.2 mm
07:30 PM 65.7°F18.7°C 58.6°F14.8°C 78% 8.4 mph ENE13.5 kmh ENE 16.1 mph25.9 kmh 29.71 in1006.1 mb 0.00 in0.0 mm 0.00 in0.0 mm 0.56 in14.2 mm
07:40 PM 65.3°F18.5°C 57.9°F14.4°C 77% 9.1 mph ENE14.6 kmh ENE 20.0 mph32.2 kmh 29.71 in1006.1 mb 0.00 in0.0 mm 0.00 in0.0 mm 0.56 in14.2 mm
07:50 PM 65.1°F18.4°C 57.7°F14.3°C 77% 7.9 mph E12.7 kmh E 12.9 mph20.8 kmh 29.74 in1007.1 mb 0.00 in0.0 mm 0.00 in0.0 mm 0.56 in14.2 mm
08:00 PM 64.9°F18.3°C 57.9°F14.4°C 78% 7.2 mph E11.6 kmh E 19.7 mph31.7 kmh 29.74 in1007.1 mb 0.00 in0.0 mm 0.00 in0.0 mm 0.56 in14.2 mm
08:10 PM 64.6°F18.1°C 57.2°F14.0°C 77% 7.9 mph E12.7 kmh E 12.9 mph20.8 kmh 29.74 in1007.1 mb 0.00 in0.0 mm 0.00 in0.0 mm 0.56 in14.2 mm
08:20 PM 64.4°F18.0°C 57.0°F13.9°C 77% 7.3 mph E11.7 kmh E 17.5 mph28.2 kmh 29.74 in1007.1 mb 0.00 in0.0 mm 0.00 in0.0 mm 0.56 in14.2 mm
08:30 PM 64.2°F17.9°C 56.9°F13.8°C 77% 7.3 mph E11.7 kmh E 13.6 mph21.9 kmh 29.74 in1007.1 mb 0.00 in0.0 mm 0.00 in0.0 mm 0.56 in14.2 mm
08:40 PM 64.0°F17.8°C 56.7°F13.7°C 77% 6.4 mph E10.3 kmh E 12.5 mph20.1 kmh 29.74 in1007.1 mb 0.00 in0.0 mm 0.00 in0.0 mm 0.56 in14.2 mm
08:50 PM 63.7°F17.6°C 56.3°F13.5°C 77% 11.9 mph E19.2 kmh E 22.2 mph35.7 kmh 29.71 in1006.1 mb 0.00 in0.0 mm 0.00 in0.0 mm 0.56 in14.2 mm
09:00 PM 63.3°F17.4°C 56.0°F13.3°C 77% 9.7 mph ENE15.6 kmh ENE 19.0 mph30.6 kmh 29.74 in1007.1 mb 0.00 in0.0 mm 0.00 in0.0 mm 0.56 in14.2 mm
09:10 PM 63.0°F17.2°C 55.6°F13.1°C 77% 7.5 mph E12.1 kmh E 16.5 mph26.6 kmh 29.74 in1007.1 mb 0.00 in0.0 mm 0.00 in0.0 mm 0.56 in14.2 mm
09:20 PM 62.6°F17.0°C 55.3°F12.9°C 77% 6.3 mph E10.1 kmh E 17.2 mph27.7 kmh 29.77 in1008.1 mb 0.00 in0.0 mm 0.00 in0.0 mm 0.56 in14.2 mm
09:30 PM 62.2°F16.8°C 55.6°F13.1°C 79% 8.0 mph E12.9 kmh E 11.8 mph19.0 kmh 29.77 in1008.1 mb 0.00 in0.0 mm 0.00 in0.0 mm 0.56 in14.2 mm
09:40 PM 61.9°F16.6°C 55.6°F13.1°C 80% 7.2 mph E11.6 kmh E 12.5 mph20.1 kmh 29.77 in1008.1 mb 0.00 in0.0 mm 0.00 in0.0 mm 0.56 in14.2 mm
09:50 PM 61.7°F16.5°C 55.5°F13.1°C 80% 7.3 mph E11.7 kmh E 12.2 mph19.6 kmh 29.74 in1007.1 mb 0.00 in0.0 mm 0.00 in0.0 mm 0.56 in14.2 mm
10:00 PM 61.3°F16.3°C 55.1°F12.8°C 80% 5.7 mph E9.2 kmh E 13.6 mph21.9 kmh 29.77 in1008.1 mb 0.00 in0.0 mm 0.00 in0.0 mm 0.56 in14.2 mm
10:10 PM 61.2°F16.2°C 54.9°F12.7°C 80% 7.8 mph ESE12.6 kmh ESE 12.2 mph19.6 kmh 29.77 in1008.1 mb 0.00 in0.0 mm 0.00 in0.0 mm 0.56 in14.2 mm
10:20 PM 61.0°F16.1°C 54.8°F12.7°C 80% 6.2 mph ENE10.0 kmh ENE 12.2 mph19.6 kmh 29.74 in1007.1 mb 0.00 in0.0 mm 0.00 in0.0 mm 0.56 in14.2 mm
10:30 PM 60.8°F16.0°C 54.6°F12.6°C 80% 3.3 mph NE5.3 kmh NE 10.4 mph16.7 kmh 29.74 in1007.1 mb 0.00 in0.0 mm 0.00 in0.0 mm 0.56 in14.2 mm
10:40 PM 60.4°F15.8°C 54.6°F12.6°C 81% 5.2 mph E8.4 kmh E 9.3 mph15.0 kmh 29.74 in1007.1 mb 0.00 in0.0 mm 0.00 in0.0 mm 0.56 in14.2 mm
10:50 PM 60.3°F15.7°C 54.4°F12.4°C 81% 6.3 mph ENE10.1 kmh ENE 13.6 mph21.9 kmh 29.74 in1007.1 mb 0.00 in0.0 mm 0.00 in0.0 mm 0.56 in14.2 mm
11:00 PM 60.1°F15.6°C 54.2°F12.3°C 81% 5.5 mph NE8.9 kmh NE 10.4 mph16.7 kmh 29.77 in1008.1 mb 0.00 in0.0 mm 0.00 in0.0 mm 0.56 in14.2 mm
11:10 PM 59.9°F15.5°C 54.1°F12.3°C 81% 2.8 mph NE4.5 kmh NE 8.6 mph13.8 kmh 29.77 in1008.1 mb 0.00 in0.0 mm 0.00 in0.0 mm 0.56 in14.2 mm
11:20 PM 59.5°F15.3°C 53.7°F12.1°C 81% 3.5 mph E5.6 kmh E 12.5 mph20.1 kmh 29.77 in1008.1 mb 0.00 in0.0 mm 0.00 in0.0 mm 0.56 in14.2 mm
11:30 PM 59.5°F15.3°C 53.7°F12.1°C 81% 0.2 mph E0.3 kmh E 1.4 mph2.3 kmh 29.74 in1007.1 mb 0.00 in0.0 mm 0.00 in0.0 mm 0.56 in14.2 mm
11:40 PM 59.4°F15.2°C 53.9°F12.2°C 82% 2.0 mph ENE3.2 kmh ENE 6.1 mph9.8 kmh 29.74 in1007.1 mb 0.00 in0.0 mm 0.00 in0.0 mm 0.56 in14.2 mm
11:50 PM 59.4°F15.2°C 54.2°F12.3°C 83% 5.6 mph E9.0 kmh E 11.5 mph18.5 kmh 29.74 in1007.1 mb 0.00 in0.0 mm 0.00 in0.0 mm 0.56 in14.2 mm